sensor_id;sensor_type;location;lat;lon;timestamp;temperature;humidity
15717;DHT22;7960;50.908;4.204;2022-10-16T00:01:05;13.80;99.90
15717;DHT22;7960;50.908;4.204;2022-10-16T00:03:34;13.80;99.90
15717;DHT22;7960;50.908;4.204;2022-10-16T00:06:01;13.80;99.90
15717;DHT22;7960;50.908;4.204;2022-10-16T00:08:28;13.80;99.90
15717;DHT22;7960;50.908;4.204;2022-10-16T00:10:59;13.80;99.90
15717;DHT22;7960;50.908;4.204;2022-10-16T00:13:26;13.80;99.90
15717;DHT22;7960;50.908;4.204;2022-10-16T00:15:55;13.70;99.90
15717;DHT22;7960;50.908;4.204;2022-10-16T00:18:22;13.70;99.90
15717;DHT22;7960;50.908;4.204;2022-10-16T00:20:50;13.70;99.90
15717;DHT22;7960;50.908;4.204;2022-10-16T00:23:18;13.70;99.90
15717;DHT22;7960;50.908;4.204;2022-10-16T00:25:45;13.70;99.90
15717;DHT22;7960;50.908;4.204;2022-10-16T00:28:20;13.70;99.90
15717;DHT22;7960;50.908;4.204;2022-10-16T00:30:47;13.70;99.90
15717;DHT22;7960;50.908;4.204;2022-10-16T00:33:14;13.70;99.90
15717;DHT22;7960;50.908;4.204;2022-10-16T00:35:40;13.70;99.90
15717;DHT22;7960;50.908;4.204;2022-10-16T00:38:09;13.70;99.90
15717;DHT22;7960;50.908;4.204;2022-10-16T00:40:36;13.70;99.90
15717;DHT22;7960;50.908;4.204;2022-10-16T00:43:08;13.70;99.90
15717;DHT22;7960;50.908;4.204;2022-10-16T00:45:35;13.60;99.90
15717;DHT22;7960;50.908;4.204;2022-10-16T00:48:02;13.60;99.90
15717;DHT22;7960;50.908;4.204;2022-10-16T00:50:31;13.60;99.90
15717;DHT22;7960;50.908;4.204;2022-10-16T00:52:59;13.60;99.90
15717;DHT22;7960;50.908;4.204;2022-10-16T00:55:28;13.60;99.90
15717;DHT22;7960;50.908;4.204;2022-10-16T00:57:56;13.60;99.90
15717;DHT22;7960;50.908;4.204;2022-10-16T01:00:26;13.70;99.90
15717;DHT22;7960;50.908;4.204;2022-10-16T01:02:53;13.60;99.90
15717;DHT22;7960;50.908;4.204;2022-10-16T01:05:22;13.70;99.90
15717;DHT22;7960;50.908;4.204;2022-10-16T01:07:56;13.60;99.90
15717;DHT22;7960;50.908;4.204;2022-10-16T01:10:33;13.60;99.90
15717;DHT22;7960;50.908;4.204;2022-10-16T01:13:05;13.60;99.90
15717;DHT22;7960;50.908;4.204;2022-10-16T01:15:35;13.60;99.90
15717;DHT22;7960;50.908;4.204;2022-10-16T01:18:08;13.60;99.90
15717;DHT22;7960;50.908;4.204;2022-10-16T01:20:44;13.60;99.90
15717;DHT22;7960;50.908;4.204;2022-10-16T01:23:26;13.60;99.90
15717;DHT22;7960;50.908;4.204;2022-10-16T01:26:19;13.60;99.90
15717;DHT22;7960;50.908;4.204;2022-10-16T01:28:53;13.60;99.90
15717;DHT22;7960;50.908;4.204;2022-10-16T01:31:24;13.60;99.90
15717;DHT22;7960;50.908;4.204;2022-10-16T01:33:57;13.60;99.90
15717;DHT22;7960;50.908;4.204;2022-10-16T01:36:29;13.60;99.90
15717;DHT22;7960;50.908;4.204;2022-10-16T01:39:01;13.60;99.90
15717;DHT22;7960;50.908;4.204;2022-10-16T01:41:34;13.70;99.90
15717;DHT22;7960;50.908;4.204;2022-10-16T01:44:06;13.60;99.90
15717;DHT22;7960;50.908;4.204;2022-10-16T01:46:36;13.60;99.90
15717;DHT22;7960;50.908;4.204;2022-10-16T01:49:05;13.60;99.90
15717;DHT22;7960;50.908;4.204;2022-10-16T01:51:33;13.50;99.90
15717;DHT22;7960;50.908;4.204;2022-10-16T01:54:02;13.40;99.90
15717;DHT22;7960;50.908;4.204;2022-10-16T01:56:30;13.50;99.90
15717;DHT22;7960;50.908;4.204;2022-10-16T01:59:01;13.40;99.90
15717;DHT22;7960;50.908;4.204;2022-10-16T02:01:33;13.40;99.90
15717;DHT22;7960;50.908;4.204;2022-10-16T02:04:13;13.40;99.90
15717;DHT22;7960;50.908;4.204;2022-10-16T02:06:42;13.40;99.90
15717;DHT22;7960;50.908;4.204;2022-10-16T02:09:09;13.40;99.90
15717;DHT22;7960;50.908;4.204;2022-10-16T02:11:35;13.40;99.90
15717;DHT22;7960;50.908;4.204;2022-10-16T02:14:05;13.40;99.90
15717;DHT22;7960;50.908;4.204;2022-10-16T02:16:35;13.40;99.90
15717;DHT22;7960;50.908;4.204;2022-10-16T02:19:02;13.40;99.90
15717;DHT22;7960;50.908;4.204;2022-10-16T02:21:34;13.30;99.90
15717;DHT22;7960;50.908;4.204;2022-10-16T02:24:08;13.40;99.90
15717;DHT22;7960;50.908;4.204;2022-10-16T02:26:49;13.30;99.90
15717;DHT22;7960;50.908;4.204;2022-10-16T02:29:20;13.30;99.90
15717;DHT22;7960;50.908;4.204;2022-10-16T02:31:52;13.30;99.90
15717;DHT22;7960;50.908;4.204;2022-10-16T02:34:21;13.30;99.90
15717;DHT22;7960;50.908;4.204;2022-10-16T02:36:50;13.30;99.90
15717;DHT22;7960;50.908;4.204;2022-10-16T02:39:18;13.20;99.90
15717;DHT22;7960;50.908;4.204;2022-10-16T02:41:46;13.30;99.90
15717;DHT22;7960;50.908;4.204;2022-10-16T02:44:13;13.30;99.90
15717;DHT22;7960;50.908;4.204;2022-10-16T02:46:40;13.30;99.90
15717;DHT22;7960;50.908;4.204;2022-10-16T02:49:08;13.20;99.90
15717;DHT22;7960;50.908;4.204;2022-10-16T02:51:35;13.30;99.90
15717;DHT22;7960;50.908;4.204;2022-10-16T02:54:02;13.30;99.90
15717;DHT22;7960;50.908;4.204;2022-10-16T02:56:29;13.20;99.90
15717;DHT22;7960;50.908;4.204;2022-10-16T02:58:56;13.10;99.90
15717;DHT22;7960;50.908;4.204;2022-10-16T03:01:23;13.20;99.90
15717;DHT22;7960;50.908;4.204;2022-10-16T03:03:50;13.10;99.90
15717;DHT22;7960;50.908;4.204;2022-10-16T03:06:18;13.20;99.90
15717;DHT22;7960;50.908;4.204;2022-10-16T03:08:45;13.10;99.90
15717;DHT22;7960;50.908;4.204;2022-10-16T03:11:12;13.10;99.90
15717;DHT22;7960;50.908;4.204;2022-10-16T03:13:38;13.10;99.90
15717;DHT22;7960;50.908;4.204;2022-10-16T03:16:05;13.10;99.90
15717;DHT22;7960;50.908;4.204;2022-10-16T03:18:32;13.10;99.90
15717;DHT22;7960;50.908;4.204;2022-10-16T03:20:59;13.10;99.90
15717;DHT22;7960;50.908;4.204;2022-10-16T03:23:27;13.10;99.90
15717;DHT22;7960;50.908;4.204;2022-10-16T03:25:54;13.20;99.90
15717;DHT22;7960;50.908;4.204;2022-10-16T03:28:21;13.20;99.90
15717;DHT22;7960;50.908;4.204;2022-10-16T03:30:48;13.20;99.90
15717;DHT22;7960;50.908;4.204;2022-10-16T03:33:15;13.20;99.90
15717;DHT22;7960;50.908;4.204;2022-10-16T03:35:41;13.20;99.90
15717;DHT22;7960;50.908;4.204;2022-10-16T03:38:08;13.20;99.90
15717;DHT22;7960;50.908;4.204;2022-10-16T03:40:36;13.20;99.90
15717;DHT22;7960;50.908;4.204;2022-10-16T03:43:03;13.20;99.90
15717;DHT22;7960;50.908;4.204;2022-10-16T03:45:30;13.20;99.90
15717;DHT22;7960;50.908;4.204;2022-10-16T03:47:57;13.20;99.90
15717;DHT22;7960;50.908;4.204;2022-10-16T03:50:24;13.30;99.90
15717;DHT22;7960;50.908;4.204;2022-10-16T03:52:50;13.30;99.90
15717;DHT22;7960;50.908;4.204;2022-10-16T03:55:17;13.10;99.90
15717;DHT22;7960;50.908;4.204;2022-10-16T03:57:45;13.20;99.90
15717;DHT22;7960;50.908;4.204;2022-10-16T04:00:13;13.10;99.90
15717;DHT22;7960;50.908;4.204;2022-10-16T04:02:40;13.20;99.90
15717;DHT22;7960;50.908;4.204;2022-10-16T04:05:07;13.20;99.90
15717;DHT22;7960;50.908;4.204;2022-10-16T04:07:34;13.20;99.90
15717;DHT22;7960;50.908;4.204;2022-10-16T04:10:01;13.20;99.90
15717;DHT22;7960;50.908;4.204;2022-10-16T04:12:28;13.10;99.90
15717;DHT22;7960;50.908;4.204;2022-10-16T04:14:56;13.10;99.90
15717;DHT22;7960;50.908;4.204;2022-10-16T04:17:23;13.20;99.90
15717;DHT22;7960;50.908;4.204;2022-10-16T04:19:49;13.20;99.90
15717;DHT22;7960;50.908;4.204;2022-10-16T04:22:16;13.20;99.90
15717;DHT22;7960;50.908;4.204;2022-10-16T04:24:43;13.20;99.90
15717;DHT22;7960;50.908;4.204;2022-10-16T04:27:10;13.10;99.90
15717;DHT22;7960;50.908;4.204;2022-10-16T04:29:37;13.20;99.90
15717;DHT22;7960;50.908;4.204;2022-10-16T04:32:05;13.20;99.90
15717;DHT22;7960;50.908;4.204;2022-10-16T04:34:32;13.20;99.90
15717;DHT22;7960;50.908;4.204;2022-10-16T04:36:58;13.10;99.90
15717;DHT22;7960;50.908;4.204;2022-10-16T04:39:25;13.10;99.90
15717;DHT22;7960;50.908;4.204;2022-10-16T04:41:52;13.10;99.90
15717;DHT22;7960;50.908;4.204;2022-10-16T04:44:19;13.10;99.90
15717;DHT22;7960;50.908;4.204;2022-10-16T04:46:46;13.10;99.90
15717;DHT22;7960;50.908;4.204;2022-10-16T04:49:14;13.20;99.90
15717;DHT22;7960;50.908;4.204;2022-10-16T04:51:40;13.10;99.90
15717;DHT22;7960;50.908;4.204;2022-10-16T04:54:08;13.00;99.90
15717;DHT22;7960;50.908;4.204;2022-10-16T04:56:35;13.00;99.90
15717;DHT22;7960;50.908;4.204;2022-10-16T04:59:08;13.00;99.90
15717;DHT22;7960;50.908;4.204;2022-10-16T05:01:35;13.00;99.90
15717;DHT22;7960;50.908;4.204;2022-10-16T05:04:02;13.00;99.90
15717;DHT22;7960;50.908;4.204;2022-10-16T05:06:31;13.00;99.90
15717;DHT22;7960;50.908;4.204;2022-10-16T05:08:58;13.00;99.90
15717;DHT22;7960;50.908;4.204;2022-10-16T05:11:24;13.00;99.90
15717;DHT22;7960;50.908;4.204;2022-10-16T05:13:51;12.90;99.90
15717;DHT22;7960;50.908;4.204;2022-10-16T05:16:18;12.90;99.90
15717;DHT22;7960;50.908;4.204;2022-10-16T05:18:45;12.90;99.90
15717;DHT22;7960;50.908;4.204;2022-10-16T05:21:11;12.90;99.90
15717;DHT22;7960;50.908;4.204;2022-10-16T05:23:40;12.90;99.90
15717;DHT22;7960;50.908;4.204;2022-10-16T05:26:07;13.00;99.90
15717;DHT22;7960;50.908;4.204;2022-10-16T05:28:34;13.00;99.90
15717;DHT22;7960;50.908;4.204;2022-10-16T05:31:04;13.00;99.90
15717;DHT22;7960;50.908;4.204;2022-10-16T05:33:31;13.00;99.90
15717;DHT22;7960;50.908;4.204;2022-10-16T05:36:00;12.90;99.90
15717;DHT22;7960;50.908;4.204;2022-10-16T05:38:28;12.90;99.90
15717;DHT22;7960;50.908;4.204;2022-10-16T05:40:56;12.80;99.90
15717;DHT22;7960;50.908;4.204;2022-10-16T05:43:23;12.80;99.90
15717;DHT22;7960;50.908;4.204;2022-10-16T05:45:56;12.90;99.90
15717;DHT22;7960;50.908;4.204;2022-10-16T05:48:24;12.80;99.90
15717;DHT22;7960;50.908;4.204;2022-10-16T05:50:57;12.90;99.90
15717;DHT22;7960;50.908;4.204;2022-10-16T05:53:24;12.90;99.90
15717;DHT22;7960;50.908;4.204;2022-10-16T05:55:52;12.90;99.90
15717;DHT22;7960;50.908;4.204;2022-10-16T05:58:20;12.90;99.90
15717;DHT22;7960;50.908;4.204;2022-10-16T06:00:53;12.80;99.90
15717;DHT22;7960;50.908;4.204;2022-10-16T06:03:20;12.90;99.90
15717;DHT22;7960;50.908;4.204;2022-10-16T06:05:47;12.90;99.90
15717;DHT22;7960;50.908;4.204;2022-10-16T06:08:14;12.90;99.90
15717;DHT22;7960;50.908;4.204;2022-10-16T06:10:41;12.90;99.90
15717;DHT22;7960;50.908;4.204;2022-10-16T06:13:08;13.00;99.90
15717;DHT22;7960;50.908;4.204;2022-10-16T06:15:37;13.00;99.90
15717;DHT22;7960;50.908;4.204;2022-10-16T06:18:04;13.00;99.90
15717;DHT22;7960;50.908;4.204;2022-10-16T06:20:31;13.00;99.90
15717;DHT22;7960;50.908;4.204;2022-10-16T06:22:58;13.00;99.90
15717;DHT22;7960;50.908;4.204;2022-10-16T06:25:25;13.10;99.90
15717;DHT22;7960;50.908;4.204;2022-10-16T06:27:52;13.10;99.90
15717;DHT22;7960;50.908;4.204;2022-10-16T06:30:18;13.10;99.90
15717;DHT22;7960;50.908;4.204;2022-10-16T06:32:47;13.10;99.90
15717;DHT22;7960;50.908;4.204;2022-10-16T06:35:13;13.20;99.90
15717;DHT22;7960;50.908;4.204;2022-10-16T06:37:40;13.20;99.90
15717;DHT22;7960;50.908;4.204;2022-10-16T06:40:08;13.20;99.90
15717;DHT22;7960;50.908;4.204;2022-10-16T06:42:34;13.30;99.90
15717;DHT22;7960;50.908;4.204;2022-10-16T06:45:01;13.30;99.90
15717;DHT22;7960;50.908;4.204;2022-10-16T06:47:28;13.40;99.90
15717;DHT22;7960;50.908;4.204;2022-10-16T06:49:56;13.30;99.90
15717;DHT22;7960;50.908;4.204;2022-10-16T06:52:23;13.40;99.90
15717;DHT22;7960;50.908;4.204;2022-10-16T06:54:50;13.40;99.90
15717;DHT22;7960;50.908;4.204;2022-10-16T06:57:18;13.40;99.90
15717;DHT22;7960;50.908;4.204;2022-10-16T06:59:45;13.40;99.90
15717;DHT22;7960;50.908;4.204;2022-10-16T07:02:12;13.40;99.90
15717;DHT22;7960;50.908;4.204;2022-10-16T07:04:39;13.40;99.90
15717;DHT22;7960;50.908;4.204;2022-10-16T07:07:07;13.40;99.90
15717;DHT22;7960;50.908;4.204;2022-10-16T07:09:34;13.40;99.90
15717;DHT22;7960;50.908;4.204;2022-10-16T07:12:01;13.50;99.90
15717;DHT22;7960;50.908;4.204;2022-10-16T07:14:28;13.50;99.90
15717;DHT22;7960;50.908;4.204;2022-10-16T07:16:55;13.50;99.90
15717;DHT22;7960;50.908;4.204;2022-10-16T07:19:22;13.60;99.90
15717;DHT22;7960;50.908;4.204;2022-10-16T07:21:50;13.70;99.90
15717;DHT22;7960;50.908;4.204;2022-10-16T07:24:18;13.70;99.90
15717;DHT22;7960;50.908;4.204;2022-10-16T07:26:46;13.70;99.90
15717;DHT22;7960;50.908;4.204;2022-10-16T07:29:14;13.70;99.90
15717;DHT22;7960;50.908;4.204;2022-10-16T07:31:42;13.70;99.90
15717;DHT22;7960;50.908;4.204;2022-10-16T07:34:09;13.70;99.90
15717;DHT22;7960;50.908;4.204;2022-10-16T07:36:36;13.80;99.90
15717;DHT22;7960;50.908;4.204;2022-10-16T07:39:03;13.80;99.90
15717;DHT22;7960;50.908;4.204;2022-10-16T07:41:32;13.80;99.90
15717;DHT22;7960;50.908;4.204;2022-10-16T07:44:02;13.80;99.90
15717;DHT22;7960;50.908;4.204;2022-10-16T07:46:29;13.90;99.90
15717;DHT22;7960;50.908;4.204;2022-10-16T07:48:57;13.90;99.90
15717;DHT22;7960;50.908;4.204;2022-10-16T07:51:25;14.00;99.90
15717;DHT22;7960;50.908;4.204;2022-10-16T07:53:53;14.00;99.90
15717;DHT22;7960;50.908;4.204;2022-10-16T07:56:20;14.10;99.90
15717;DHT22;7960;50.908;4.204;2022-10-16T07:58:49;14.10;99.90
15717;DHT22;7960;50.908;4.204;2022-10-16T08:01:17;14.10;99.90
15717;DHT22;7960;50.908;4.204;2022-10-16T08:03:45;14.20;99.90
15717;DHT22;7960;50.908;4.204;2022-10-16T08:06:12;14.30;99.90
15717;DHT22;7960;50.908;4.204;2022-10-16T08:08:39;14.40;99.90
15717;DHT22;7960;50.908;4.204;2022-10-16T08:11:06;14.40;99.90
15717;DHT22;7960;50.908;4.204;2022-10-16T08:13:34;14.50;99.90
15717;DHT22;7960;50.908;4.204;2022-10-16T08:16:03;14.60;99.90
15717;DHT22;7960;50.908;4.204;2022-10-16T08:18:33;14.60;99.90
15717;DHT22;7960;50.908;4.204;2022-10-16T08:21:01;14.70;99.90
15717;DHT22;7960;50.908;4.204;2022-10-16T08:23:28;14.80;99.90
15717;DHT22;7960;50.908;4.204;2022-10-16T08:25:56;14.90;99.90
15717;DHT22;7960;50.908;4.204;2022-10-16T08:28:28;15.10;99.90
15717;DHT22;7960;50.908;4.204;2022-10-16T08:30:54;15.20;99.90
15717;DHT22;7960;50.908;4.204;2022-10-16T08:33:23;15.30;99.90
15717;DHT22;7960;50.908;4.204;2022-10-16T08:35:51;15.40;99.90
15717;DHT22;7960;50.908;4.204;2022-10-16T08:38:19;15.40;99.90
15717;DHT22;7960;50.908;4.204;2022-10-16T08:40:46;15.60;99.90
15717;DHT22;7960;50.908;4.204;2022-10-16T08:43:28;15.70;99.90
15717;DHT22;7960;50.908;4.204;2022-10-16T08:46:15;15.80;99.90
15717;DHT22;7960;50.908;4.204;2022-10-16T08:48:46;15.90;99.90
15717;DHT22;7960;50.908;4.204;2022-10-16T08:51:20;15.90;99.90
15717;DHT22;7960;50.908;4.204;2022-10-16T08:53:52;16.10;99.90
15717;DHT22;7960;50.908;4.204;2022-10-16T08:56:20;16.20;99.90
15717;DHT22;7960;50.908;4.204;2022-10-16T08:58:48;16.20;99.90
15717;DHT22;7960;50.908;4.204;2022-10-16T09:01:18;16.20;99.90
15717;DHT22;7960;50.908;4.204;2022-10-16T09:04:13;16.30;99.90
15717;DHT22;7960;50.908;4.204;2022-10-16T09:06:46;16.40;99.90
15717;DHT22;7960;50.908;4.204;2022-10-16T09:09:39;16.60;99.90
15717;DHT22;7960;50.908;4.204;2022-10-16T09:12:12;16.70;99.90
15717;DHT22;7960;50.908;4.204;2022-10-16T09:15:01;16.70;99.90
15717;DHT22;7960;50.908;4.204;2022-10-16T09:17:44;17.00;99.90
15717;DHT22;7960;50.908;4.204;2022-10-16T09:20:24;17.20;99.90
15717;DHT22;7960;50.908;4.204;2022-10-16T09:22:58;17.30;99.90
15717;DHT22;7960;50.908;4.204;2022-10-16T09:25:27;17.40;99.90
15717;DHT22;7960;50.908;4.204;2022-10-16T09:27:55;17.40;99.90
15717;DHT22;7960;50.908;4.204;2022-10-16T09:30:22;17.60;99.90
15717;DHT22;7960;50.908;4.204;2022-10-16T09:32:53;17.70;99.90
15717;DHT22;7960;50.908;4.204;2022-10-16T09:35:27;17.80;99.90
15717;DHT22;7960;50.908;4.204;2022-10-16T09:37:57;17.90;99.90
15717;DHT22;7960;50.908;4.204;2022-10-16T09:40:30;17.90;99.90
15717;DHT22;7960;50.908;4.204;2022-10-16T09:43:03;18.00;99.90
15717;DHT22;7960;50.908;4.204;2022-10-16T09:45:33;18.10;99.90
15717;DHT22;7960;50.908;4.204;2022-10-16T09:48:01;18.10;99.90
15717;DHT22;7960;50.908;4.204;2022-10-16T09:50:38;18.10;99.90
15717;DHT22;7960;50.908;4.204;2022-10-16T09:53:07;18.30;99.90
15717;DHT22;7960;50.908;4.204;2022-10-16T09:55:47;18.40;99.90
15717;DHT22;7960;50.908;4.204;2022-10-16T09:58:14;18.30;99.90
15717;DHT22;7960;50.908;4.204;2022-10-16T10:00:47;18.30;99.90
15717;DHT22;7960;50.908;4.204;2022-10-16T10:03:30;18.30;99.90
15717;DHT22;7960;50.908;4.204;2022-10-16T10:06:03;18.30;99.90
15717;DHT22;7960;50.908;4.204;2022-10-16T10:08:31;18.20;99.90
15717;DHT22;7960;50.908;4.204;2022-10-16T10:10:58;18.20;99.90
15717;DHT22;7960;50.908;4.204;2022-10-16T10:13:25;18.20;99.90
15717;DHT22;7960;50.908;4.204;2022-10-16T10:15:53;17.90;99.90
15717;DHT22;7960;50.908;4.204;2022-10-16T10:18:21;17.60;99.90
15717;DHT22;7960;50.908;4.204;2022-10-16T10:21:01;17.50;99.90
15717;DHT22;7960;50.908;4.204;2022-10-16T10:23:30;17.60;99.90
15717;DHT22;7960;50.908;4.204;2022-10-16T10:26:01;17.90;99.90
15717;DHT22;7960;50.908;4.204;2022-10-16T10:28:47;18.00;99.90
15717;DHT22;7960;50.908;4.204;2022-10-16T10:31:21;17.90;99.90
15717;DHT22;7960;50.908;4.204;2022-10-16T10:33:56;18.00;99.90
15717;DHT22;7960;50.908;4.204;2022-10-16T10:36:33;18.20;99.90
15717;DHT22;7960;50.908;4.204;2022-10-16T10:39:05;18.40;99.90
15717;DHT22;7960;50.908;4.204;2022-10-16T10:41:59;18.50;99.90
15717;DHT22;7960;50.908;4.204;2022-10-16T10:44:37;18.50;99.90
15717;DHT22;7960;50.908;4.204;2022-10-16T10:47:16;18.60;99.90
15717;DHT22;7960;50.908;4.204;2022-10-16T10:49:55;18.60;99.90
15717;DHT22;7960;50.908;4.204;2022-10-16T10:52:38;18.40;99.90
15717;DHT22;7960;50.908;4.204;2022-10-16T10:55:17;18.50;99.90
15717;DHT22;7960;50.908;4.204;2022-10-16T11:00:48;18.80;99.90
15717;DHT22;7960;50.908;4.204;2022-10-16T11:03:27;19.00;99.90
15717;DHT22;7960;50.908;4.204;2022-10-16T11:06:04;19.00;99.90
15717;DHT22;7960;50.908;4.204;2022-10-16T11:08:36;18.90;99.90
15717;DHT22;7960;50.908;4.204;2022-10-16T11:11:09;18.90;99.90
15717;DHT22;7960;50.908;4.204;2022-10-16T11:13:42;19.10;99.90
15717;DHT22;7960;50.908;4.204;2022-10-16T11:16:17;19.30;99.90
15717;DHT22;7960;50.908;4.204;2022-10-16T11:18:50;19.40;99.90
15717;DHT22;7960;50.908;4.204;2022-10-16T11:21:19;19.50;99.90
15717;DHT22;7960;50.908;4.204;2022-10-16T11:23:53;19.70;99.90
15717;DHT22;7960;50.908;4.204;2022-10-16T11:26:24;19.80;99.90
15717;DHT22;7960;50.908;4.204;2022-10-16T11:28:54;19.90;99.90
15717;DHT22;7960;50.908;4.204;2022-10-16T11:31:26;20.00;99.90
15717;DHT22;7960;50.908;4.204;2022-10-16T11:34:01;19.90;99.90
15717;DHT22;7960;50.908;4.204;2022-10-16T11:36:33;20.00;99.90
15717;DHT22;7960;50.908;4.204;2022-10-16T11:39:08;19.80;99.90
15717;DHT22;7960;50.908;4.204;2022-10-16T11:41:44;19.90;99.90
15717;DHT22;7960;50.908;4.204;2022-10-16T11:47:23;20.20;99.90
15717;DHT22;7960;50.908;4.204;2022-10-16T11:49:55;20.50;99.90
15717;DHT22;7960;50.908;4.204;2022-10-16T11:52:30;20.30;99.90
15717;DHT22;7960;50.908;4.204;2022-10-16T11:55:02;20.00;99.90
15717;DHT22;7960;50.908;4.204;2022-10-16T11:57:33;20.10;99.90
15717;DHT22;7960;50.908;4.204;2022-10-16T12:00:07;19.80;99.90
15717;DHT22;7960;50.908;4.204;2022-10-16T12:02:50;19.60;99.90
15717;DHT22;7960;50.908;4.204;2022-10-16T12:05:25;19.40;99.90
15717;DHT22;7960;50.908;4.204;2022-10-16T12:08:04;19.30;99.90
15717;DHT22;7960;50.908;4.204;2022-10-16T12:10:33;19.30;99.90
15717;DHT22;7960;50.908;4.204;2022-10-16T12:13:03;19.30;99.90
15717;DHT22;7960;50.908;4.204;2022-10-16T12:15:31;19.40;99.90
15717;DHT22;7960;50.908;4.204;2022-10-16T12:17:58;19.80;99.90
15717;DHT22;7960;50.908;4.204;2022-10-16T12:20:28;20.20;99.90
15717;DHT22;7960;50.908;4.204;2022-10-16T12:23:00;20.40;99.90
15717;DHT22;7960;50.908;4.204;2022-10-16T12:25:29;20.40;99.90
15717;DHT22;7960;50.908;4.204;2022-10-16T12:28:03;20.20;99.90
15717;DHT22;7960;50.908;4.204;2022-10-16T12:30:33;19.90;99.90
15717;DHT22;7960;50.908;4.204;2022-10-16T12:33:02;19.70;99.90
15717;DHT22;7960;50.908;4.204;2022-10-16T12:35:33;19.70;99.90
15717;DHT22;7960;50.908;4.204;2022-10-16T12:38:15;19.70;99.90
15717;DHT22;7960;50.908;4.204;2022-10-16T12:40:43;19.50;99.90
15717;DHT22;7960;50.908;4.204;2022-10-16T12:43:27;19.20;99.90
15717;DHT22;7960;50.908;4.204;2022-10-16T12:46:02;19.10;99.90
15717;DHT22;7960;50.908;4.204;2022-10-16T12:48:30;19.00;99.90
15717;DHT22;7960;50.908;4.204;2022-10-16T12:50:57;19.00;99.90
15717;DHT22;7960;50.908;4.204;2022-10-16T12:53:25;19.20;99.90
15717;DHT22;7960;50.908;4.204;2022-10-16T12:56:04;19.20;99.90
15717;DHT22;7960;50.908;4.204;2022-10-16T12:58:59;19.10;99.90
15717;DHT22;7960;50.908;4.204;2022-10-16T13:01:42;19.10;99.90
15717;DHT22;7960;50.908;4.204;2022-10-16T13:04:26;19.10;99.90
15717;DHT22;7960;50.908;4.204;2022-10-16T13:07:03;19.20;99.90
15717;DHT22;7960;50.908;4.204;2022-10-16T13:09:44;19.10;99.90
15717;DHT22;7960;50.908;4.204;2022-10-16T13:12:29;19.20;99.90
15717;DHT22;7960;50.908;4.204;2022-10-16T13:15:22;19.30;99.90
15717;DHT22;7960;50.908;4.204;2022-10-16T13:17:58;19.40;99.90
15717;DHT22;7960;50.908;4.204;2022-10-16T13:20:34;19.30;99.90
15717;DHT22;7960;50.908;4.204;2022-10-16T13:23:10;19.30;99.90
15717;DHT22;7960;50.908;4.204;2022-10-16T13:25:50;19.10;99.90
15717;DHT22;7960;50.908;4.204;2022-10-16T13:28:22;19.20;99.90
15717;DHT22;7960;50.908;4.204;2022-10-16T13:30:56;19.20;99.90
15717;DHT22;7960;50.908;4.204;2022-10-16T13:33:30;19.00;99.90
15717;DHT22;7960;50.908;4.204;2022-10-16T13:35:59;19.00;99.90
15717;DHT22;7960;50.908;4.204;2022-10-16T13:38:27;18.90;99.90
15717;DHT22;7960;50.908;4.204;2022-10-16T13:40:56;19.00;99.90
15717;DHT22;7960;50.908;4.204;2022-10-16T13:43:27;19.00;99.90
15717;DHT22;7960;50.908;4.204;2022-10-16T13:46:01;19.00;99.90
15717;DHT22;7960;50.908;4.204;2022-10-16T13:48:29;18.90;99.90
15717;DHT22;7960;50.908;4.204;2022-10-16T13:51:14;18.70;99.90
15717;DHT22;7960;50.908;4.204;2022-10-16T13:53:42;18.70;99.90
15717;DHT22;7960;50.908;4.204;2022-10-16T13:56:11;18.80;99.90
15717;DHT22;7960;50.908;4.204;2022-10-16T13:58:39;18.80;99.90
15717;DHT22;7960;50.908;4.204;2022-10-16T14:01:16;18.80;99.90
15717;DHT22;7960;50.908;4.204;2022-10-16T14:03:43;18.60;99.90
15717;DHT22;7960;50.908;4.204;2022-10-16T14:06:13;18.70;99.90
15717;DHT22;7960;50.908;4.204;2022-10-16T14:08:43;18.60;99.90
15717;DHT22;7960;50.908;4.204;2022-10-16T14:11:11;18.60;99.90
15717;DHT22;7960;50.908;4.204;2022-10-16T14:13:42;18.50;99.90
15717;DHT22;7960;50.908;4.204;2022-10-16T14:16:16;18.40;99.90
15717;DHT22;7960;50.908;4.204;2022-10-16T14:18:46;18.50;99.90
15717;DHT22;7960;50.908;4.204;2022-10-16T14:21:16;18.60;99.90
15717;DHT22;7960;50.908;4.204;2022-10-16T14:23:43;18.70;99.90
15717;DHT22;7960;50.908;4.204;2022-10-16T14:26:15;18.70;99.90
15717;DHT22;7960;50.908;4.204;2022-10-16T14:28:43;18.80;99.90
15717;DHT22;7960;50.908;4.204;2022-10-16T14:31:29;18.60;99.90
15717;DHT22;7960;50.908;4.204;2022-10-16T14:33:57;18.50;99.90
15717;DHT22;7960;50.908;4.204;2022-10-16T14:36:25;18.50;99.90
15717;DHT22;7960;50.908;4.204;2022-10-16T14:39:01;18.50;99.90
15717;DHT22;7960;50.908;4.204;2022-10-16T14:41:29;18.50;99.90
15717;DHT22;7960;50.908;4.204;2022-10-16T14:44:01;18.40;99.90
15717;DHT22;7960;50.908;4.204;2022-10-16T14:46:33;18.50;99.90
15717;DHT22;7960;50.908;4.204;2022-10-16T14:49:04;18.40;99.90
15717;DHT22;7960;50.908;4.204;2022-10-16T14:51:40;18.40;99.90
15717;DHT22;7960;50.908;4.204;2022-10-16T14:54:07;18.40;99.90
15717;DHT22;7960;50.908;4.204;2022-10-16T14:56:43;18.60;99.90
15717;DHT22;7960;50.908;4.204;2022-10-16T14:59:16;18.60;99.90
15717;DHT22;7960;50.908;4.204;2022-10-16T15:01:45;18.70;99.90
15717;DHT22;7960;50.908;4.204;2022-10-16T15:04:13;18.60;99.90
15717;DHT22;7960;50.908;4.204;2022-10-16T15:06:41;18.60;99.90
15717;DHT22;7960;50.908;4.204;2022-10-16T15:09:08;18.60;99.90
15717;DHT22;7960;50.908;4.204;2022-10-16T15:11:35;18.50;99.90
15717;DHT22;7960;50.908;4.204;2022-10-16T15:14:02;18.50;99.90
15717;DHT22;7960;50.908;4.204;2022-10-16T15:16:30;18.50;99.90
15717;DHT22;7960;50.908;4.204;2022-10-16T15:18:58;18.60;99.90
15717;DHT22;7960;50.908;4.204;2022-10-16T15:21:27;18.50;99.90
15717;DHT22;7960;50.908;4.204;2022-10-16T15:23:55;18.40;99.90
15717;DHT22;7960;50.908;4.204;2022-10-16T15:26:23;18.30;99.90
15717;DHT22;7960;50.908;4.204;2022-10-16T15:28:50;18.30;99.90
15717;DHT22;7960;50.908;4.204;2022-10-16T15:31:17;18.20;99.90
15717;DHT22;7960;50.908;4.204;2022-10-16T15:33:44;18.20;99.90
15717;DHT22;7960;50.908;4.204;2022-10-16T15:36:22;18.30;99.90
15717;DHT22;7960;50.908;4.204;2022-10-16T15:38:50;18.30;99.90
15717;DHT22;7960;50.908;4.204;2022-10-16T15:41:18;18.30;99.90
15717;DHT22;7960;50.908;4.204;2022-10-16T15:43:47;18.30;99.90
15717;DHT22;7960;50.908;4.204;2022-10-16T15:46:15;18.30;99.90
15717;DHT22;7960;50.908;4.204;2022-10-16T15:48:43;18.30;99.90
15717;DHT22;7960;50.908;4.204;2022-10-16T15:51:10;18.20;99.90
15717;DHT22;7960;50.908;4.204;2022-10-16T15:53:38;18.30;99.90
15717;DHT22;7960;50.908;4.204;2022-10-16T15:56:07;18.30;99.90
15717;DHT22;7960;50.908;4.204;2022-10-16T15:58:34;18.20;99.90
15717;DHT22;7960;50.908;4.204;2022-10-16T16:01:02;18.20;99.90
15717;DHT22;7960;50.908;4.204;2022-10-16T16:03:30;18.20;99.90
15717;DHT22;7960;50.908;4.204;2022-10-16T16:05:57;18.20;99.90
15717;DHT22;7960;50.908;4.204;2022-10-16T16:08:24;18.20;99.90
15717;DHT22;7960;50.908;4.204;2022-10-16T16:10:59;18.10;99.90